This is the latest recevied weather packets stored in our database for station/object 9M2EVR-2. If no packets are shown the sender has not sent any weather packets the latest 1 day(s).
| Time | Temp. | Humidity | Pressure | Rain* | Wind** | Luminosity | Snow |
|---|---|---|---|---|---|---|---|
| 1778096624 | 37.78° C | 48% | 1005.1 hPa | - | - | - | - |
| 1778095723 | 37.78° C | 48% | 1005.1 hPa | - | - | - | - |
| 1778091219 | 38.33° C | 47% | 1005.5 hPa | - | - | - | - |
| 1778090318 | 38.89° C | 45% | 1005.8 hPa | - | - | - | - |
| 1778086715 | 41.67° C | 41% | 1006.3 hPa | - | - | - | - |
| 1778085814 | 42.78° C | 39% | 1006.5 hPa | - | - | - | - |
| 1778082211 | 45.56° C | 35% | 1007.3 hPa | - | - | - | - |
| 1778081310 | 45.56° C | 35% | 1007.2 hPa | - | - | - | - |
| 1778076806 | 46.11° C | 35% | 1006.4 hPa | - | - | - | - |
| 1778074066 | 37.22° C | 48% | 1006.6 hPa | - | - | - | - |
| 1778068700 | 39.44° C | 45% | 1004 hPa | - | - | - | - |
| 1778067799 | 39.44° C | 45% | 1004.2 hPa | - | - | - | - |
| 1778066898 | 40° C | 45% | 1003.9 hPa | - | - | - | - |
| 1778064196 | 41.11° C | 44% | 1003 hPa | - | - | - | - |
| 1778063295 | 40° C | 47% | 1002.8 hPa | - | - | - | - |
| 1778062394 | 40° C | 47% | 1002.5 hPa | - | - | - | - |
| 1778059692 | 42.22° C | 41% | 1002.3 hPa | - | - | - | - |
| 1778058791 | 42.22° C | 41% | 1002.2 hPa | - | - | - | - |
| 1778055188 | 42.22° C | 42% | 1002 hPa | - | - | - | - |
| 1778054287 | 42.22° C | 41% | 1001.8 hPa | - | - | - | - |
| 1778053386 | 42.22° C | 42% | 1002.2 hPa | - | - | - | - |
| 1778052485 | 42.22° C | 41% | 1002.4 hPa | - | - | - | - |
| 1778050684 | 42.78° C | 37% | 1003 hPa | - | - | - | - |
| 1778048882 | 42.22° C | 40% | 1003.7 hPa | - | - | - | - |
| 1778046180 | 42.78° C | 39% | 1004.9 hPa | - | - | - | - |
* Rain since midnight (hover to see other rain measurements)
** Current wind speed in m/s (hover to see current wind gust speed)